createdAt,value
2017-06-15T00:01:11.239Z,1013.88
2017-06-15T00:02:11.173Z,1013.9
2017-06-15T00:03:11.110Z,1013.89
2017-06-15T00:04:11.047Z,1013.91
2017-06-15T00:05:10.986Z,1013.86
2017-06-15T00:06:10.923Z,1013.86
2017-06-15T00:07:10.860Z,1013.87
2017-06-15T00:08:10.797Z,1013.86
2017-06-15T00:09:10.735Z,1013.88
2017-06-15T00:10:10.673Z,1013.87
2017-06-15T00:11:10.612Z,1013.86
2017-06-15T00:12:10.549Z,1013.86
2017-06-15T00:13:10.486Z,1013.89
2017-06-15T00:14:10.425Z,1013.88
2017-06-15T00:15:10.362Z,1013.89
2017-06-15T00:16:10.308Z,1013.9
2017-06-15T00:17:10.237Z,1013.88
2017-06-15T00:18:10.175Z,1013.87
2017-06-15T00:19:10.112Z,1013.86
2017-06-15T00:20:10.049Z,1013.84
2017-06-15T00:21:09.988Z,1013.83
2017-06-15T00:22:09.925Z,1013.81
2017-06-15T00:23:09.862Z,1013.81
2017-06-15T00:24:09.800Z,1013.8
2017-06-15T00:25:09.742Z,1013.79
2017-06-15T00:26:09.676Z,1013.79
2017-06-15T00:27:09.613Z,1013.79
2017-06-15T00:28:09.550Z,1013.77
2017-06-15T00:29:09.490Z,1013.77
2017-06-15T00:30:09.426Z,1013.8
2017-06-15T00:31:09.366Z,1013.8
2017-06-15T00:32:09.302Z,1013.83
2017-06-15T00:33:09.244Z,1013.83
2017-06-15T00:34:09.176Z,1013.84
2017-06-15T00:35:09.114Z,1013.85
2017-06-15T00:36:09.052Z,1013.86
2017-06-15T00:37:08.989Z,1013.83
2017-06-15T00:38:08.927Z,1013.88
2017-06-15T00:39:08.869Z,1013.86
2017-06-15T00:40:08.804Z,1013.87
2017-06-15T00:41:08.740Z,1013.88
2017-06-15T00:42:08.678Z,1013.88
2017-06-15T00:43:08.616Z,1013.88
2017-06-15T00:44:08.552Z,1013.91
2017-06-15T00:45:08.490Z,1013.88
2017-06-15T00:46:08.429Z,1013.88
2017-06-15T00:47:08.367Z,1013.85
2017-06-15T00:48:08.303Z,1013.82
2017-06-15T00:49:08.241Z,1013.8
2017-06-15T00:50:08.179Z,1013.76
2017-06-15T00:51:08.117Z,1013.77
2017-06-15T00:52:08.055Z,1013.69
2017-06-15T00:53:07.992Z,1013.7
2017-06-15T00:54:07.929Z,1013.64
2017-06-15T00:55:07.866Z,1013.65
2017-06-15T00:56:07.804Z,1013.68
2017-06-15T00:57:07.742Z,1013.67
2017-06-15T00:58:07.684Z,1013.68
2017-06-15T00:59:07.617Z,1013.71
2017-06-15T01:00:07.555Z,1013.73
2017-06-15T01:01:07.493Z,1013.7
2017-06-15T01:02:07.430Z,1013.68
2017-06-15T01:03:07.367Z,1013.69
2017-06-15T01:04:07.305Z,1013.7
2017-06-15T01:05:07.243Z,1013.7
2017-06-15T01:06:07.180Z,1013.68
2017-06-15T01:07:07.119Z,1013.68
2017-06-15T01:08:07.056Z,1013.7
2017-06-15T01:09:06.994Z,1013.7
2017-06-15T01:10:06.930Z,1013.75
2017-06-15T01:11:06.868Z,1013.71
2017-06-15T01:12:06.816Z,1013.7
2017-06-15T01:13:06.744Z,1013.69
2017-06-15T01:14:06.681Z,1013.69
2017-06-15T01:15:06.619Z,1013.7
2017-06-15T01:16:06.557Z,1013.68
2017-06-15T01:17:06.493Z,1013.7
2017-06-15T01:18:06.433Z,1013.69
2017-06-15T01:19:06.371Z,1013.66
2017-06-15T01:20:06.307Z,1013.66
2017-06-15T01:21:06.244Z,1013.6
2017-06-15T01:22:06.182Z,1013.61
2017-06-15T01:23:06.370Z,1013.6
2017-06-15T01:24:06.058Z,1013.66
2017-06-15T01:25:05.995Z,1013.68
2017-06-15T01:26:05.932Z,1013.68
2017-06-15T01:27:05.870Z,1013.66
2017-06-15T01:28:05.807Z,1013.66
2017-06-15T01:29:05.775Z,1013.64
2017-06-15T01:30:05.682Z,1013.67
2017-06-15T01:31:05.621Z,1013.66
2017-06-15T01:32:05.557Z,1013.63
2017-06-15T01:33:05.495Z,1013.63
2017-06-15T01:34:05.433Z,1013.66
2017-06-15T01:35:05.472Z,1013.64
2017-06-15T01:36:05.308Z,1013.66
2017-06-15T01:37:05.247Z,1013.67
2017-06-15T01:38:05.185Z,1013.72
2017-06-15T01:39:05.122Z,1013.74
2017-06-15T01:40:05.059Z,1013.73
2017-06-15T01:41:04.997Z,1013.75
2017-06-15T01:42:04.935Z,1013.76
2017-06-15T01:43:04.872Z,1013.74
2017-06-15T01:44:04.809Z,1013.77
2017-06-15T01:45:04.747Z,1013.75
2017-06-15T01:46:04.685Z,1013.75
2017-06-15T01:47:04.622Z,1013.74
2017-06-15T01:48:04.559Z,1013.72
2017-06-15T01:49:04.498Z,1013.72
2017-06-15T01:50:04.436Z,1013.73
2017-06-15T01:51:04.373Z,1013.76
2017-06-15T01:52:04.311Z,1013.73
2017-06-15T01:53:04.248Z,1013.75
2017-06-15T01:54:04.185Z,1013.77
2017-06-15T01:55:04.123Z,1013.77
2017-06-15T01:56:04.061Z,1013.75
2017-06-15T01:57:03.997Z,1013.75
2017-06-15T01:58:03.935Z,1013.75
2017-06-15T01:59:03.873Z,1013.71
2017-06-15T02:00:03.811Z,1013.71
2017-06-15T02:01:03.748Z,1013.73
2017-06-15T02:02:03.685Z,1013.75
2017-06-15T02:03:03.624Z,1013.74
2017-06-15T02:04:03.561Z,1013.73
2017-06-15T02:05:03.497Z,1013.71
2017-06-15T02:06:03.435Z,1013.68
2017-06-15T02:07:03.373Z,1013.68
2017-06-15T02:08:03.310Z,1013.7
2017-06-15T02:09:03.248Z,1013.74
2017-06-15T02:10:03.186Z,1013.74
2017-06-15T02:11:03.325Z,1013.73
2017-06-15T02:12:03.060Z,1013.76
2017-06-15T02:13:02.998Z,1013.76
2017-06-15T02:14:02.936Z,1013.76
2017-06-15T02:15:02.873Z,1013.76
2017-06-15T02:16:02.810Z,1013.77
2017-06-15T02:17:02.749Z,1013.78
2017-06-15T02:18:02.686Z,1013.76
2017-06-15T02:19:02.623Z,1013.78
2017-06-15T02:20:02.561Z,1013.77
2017-06-15T02:21:02.499Z,1013.81
2017-06-15T02:22:02.437Z,1013.75
2017-06-15T02:23:02.374Z,1013.78
2017-06-15T02:24:02.311Z,1013.75
2017-06-15T02:25:02.249Z,1013.74
2017-06-15T02:26:02.189Z,1013.78
2017-06-15T02:27:02.123Z,1013.74
2017-06-15T02:28:02.061Z,1013.75
2017-06-15T02:29:01.999Z,1013.74
2017-06-15T02:30:01.937Z,1013.72
2017-06-15T02:31:01.874Z,1013.74
2017-06-15T02:32:01.811Z,1013.74
2017-06-15T02:33:01.749Z,1013.75
2017-06-15T02:34:01.686Z,1013.72
2017-06-15T02:35:01.623Z,1013.74
2017-06-15T02:36:01.564Z,1013.78
2017-06-15T02:37:01.499Z,1013.75
2017-06-15T02:38:01.436Z,1013.73
2017-06-15T02:39:01.374Z,1013.78
2017-06-15T02:40:01.312Z,1013.74
2017-06-15T02:41:01.249Z,1013.78
2017-06-15T02:42:01.186Z,1013.76
2017-06-15T02:43:01.124Z,1013.76
2017-06-15T02:44:01.062Z,1013.77
2017-06-15T02:45:00.998Z,1013.81
2017-06-15T02:46:00.936Z,1013.8
2017-06-15T02:47:00.874Z,1013.79
2017-06-15T02:48:00.812Z,1013.8
2017-06-15T02:49:00.749Z,1013.82
2017-06-15T02:50:00.687Z,1013.81
2017-06-15T02:51:00.625Z,1013.83
2017-06-15T02:52:00.561Z,1013.85
2017-06-15T02:53:00.500Z,1013.83
2017-06-15T02:54:00.437Z,1013.83
2017-06-15T02:55:00.375Z,1013.86
2017-06-15T02:56:00.312Z,1013.83
2017-06-15T02:57:00.250Z,1013.82
2017-06-15T02:58:00.187Z,1013.86
2017-06-15T02:59:00.125Z,1013.82
2017-06-15T03:00:00.062Z,1013.79
2017-06-15T03:01:00.000Z,1013.86
2017-06-15T03:01:59.937Z,1013.83
2017-06-15T03:02:59.874Z,1013.83
2017-06-15T03:03:59.813Z,1013.83
2017-06-15T03:04:59.750Z,1013.85
2017-06-15T03:05:59.688Z,1013.84
2017-06-15T03:06:59.625Z,1013.82
2017-06-15T03:07:59.562Z,1013.81
2017-06-15T03:08:59.510Z,1013.79
2017-06-15T03:09:59.438Z,1013.81
2017-06-15T03:10:59.376Z,1013.83
2017-06-15T03:11:59.313Z,1013.84
2017-06-15T03:12:59.252Z,1013.82
2017-06-15T03:13:59.188Z,1013.84
2017-06-15T03:14:59.126Z,1013.83
2017-06-15T03:15:59.064Z,1013.84
2017-06-15T03:16:59.001Z,1013.85
2017-06-15T03:17:58.938Z,1013.85
2017-06-15T03:18:58.876Z,1013.85
2017-06-15T03:19:58.814Z,1013.83
2017-06-15T03:20:58.750Z,1013.85
2017-06-15T03:21:58.689Z,1013.82
2017-06-15T03:22:58.626Z,1013.85
2017-06-15T03:23:58.564Z,1013.83
2017-06-15T03:24:58.501Z,1013.85
2017-06-15T03:25:58.439Z,1013.84
2017-06-15T03:26:58.376Z,1013.87
2017-06-15T03:27:58.314Z,1013.88
2017-06-15T03:28:58.251Z,1013.88
2017-06-15T03:29:58.192Z,1013.88
2017-06-15T03:30:58.126Z,1013.88
2017-06-15T03:31:58.063Z,1013.88
2017-06-15T03:32:58.002Z,1013.9
2017-06-15T03:33:58.142Z,1013.88
2017-06-15T03:34:58.080Z,1013.89
2017-06-15T03:35:57.814Z,1013.84
2017-06-15T03:36:57.751Z,1013.89
2017-06-15T03:37:57.689Z,1013.87
2017-06-15T03:38:57.627Z,1013.87
2017-06-15T03:39:57.564Z,1013.84
2017-06-15T03:40:57.503Z,1013.83
2017-06-15T03:41:57.444Z,1013.79
2017-06-15T03:42:57.376Z,1013.79
2017-06-15T03:43:57.314Z,1013.79
2017-06-15T03:44:57.252Z,1013.79
2017-06-15T03:45:57.189Z,1013.79
2017-06-15T03:46:57.127Z,1013.81
2017-06-15T03:47:57.064Z,1013.77
2017-06-15T03:48:57.002Z,1013.79
2017-06-15T03:49:56.939Z,1013.78
2017-06-15T03:50:56.877Z,1013.76
2017-06-15T03:51:56.814Z,1013.71
2017-06-15T03:52:56.752Z,1013.73
2017-06-15T03:53:56.689Z,1013.76
2017-06-15T03:54:56.626Z,1013.73
2017-06-15T03:55:56.564Z,1013.71
2017-06-15T03:56:56.501Z,1013.72
2017-06-15T03:57:56.438Z,1013.7
2017-06-15T03:58:56.376Z,1013.71
2017-06-15T03:59:56.320Z,1013.74
2017-06-15T04:00:56.454Z,1013.73
2017-06-15T04:01:56.189Z,1013.73
2017-06-15T04:02:56.126Z,1013.72
2017-06-15T04:03:56.065Z,1013.69
2017-06-15T04:04:56.001Z,1013.73
2017-06-15T04:05:55.939Z,1013.76
2017-06-15T04:06:55.877Z,1013.75
2017-06-15T04:07:55.815Z,1013.77
2017-06-15T04:08:55.752Z,1013.79
2017-06-15T04:09:55.689Z,1013.8
2017-06-15T04:10:55.628Z,1013.81
2017-06-15T04:11:55.566Z,1013.78
2017-06-15T04:12:55.501Z,1013.79
2017-06-15T04:13:55.440Z,1013.77
2017-06-15T04:14:55.380Z,1013.77
2017-06-15T04:15:55.315Z,1013.77
2017-06-15T04:16:55.252Z,1013.73
2017-06-15T04:17:55.190Z,1013.76
2017-06-15T04:18:55.127Z,1013.74
2017-06-15T04:19:55.065Z,1013.74
2017-06-15T04:20:55.002Z,1013.76
2017-06-15T04:21:54.941Z,1013.79
2017-06-15T04:22:54.878Z,1013.76
2017-06-15T04:23:54.815Z,1013.77
2017-06-15T04:24:54.753Z,1013.76
2017-06-15T04:25:54.690Z,1013.78
2017-06-15T04:26:54.627Z,1013.76
2017-06-15T04:27:54.581Z,1013.74
2017-06-15T04:28:54.502Z,1013.76
2017-06-15T04:29:54.440Z,1013.76
2017-06-15T04:30:54.378Z,1013.8
2017-06-15T04:31:54.315Z,1013.82
2017-06-15T04:32:54.254Z,1013.81
2017-06-15T04:33:54.191Z,1013.8
2017-06-15T04:34:54.127Z,1013.8
2017-06-15T04:35:54.065Z,1013.77
2017-06-15T04:36:54.003Z,1013.76
2017-06-15T04:37:53.940Z,1013.77
2017-06-15T04:38:53.880Z,1013.77
2017-06-15T04:39:53.816Z,1013.75
2017-06-15T04:40:53.754Z,1013.76
2017-06-15T04:41:53.692Z,1013.74
2017-06-15T04:42:53.628Z,1013.77
2017-06-15T04:43:53.566Z,1013.75
2017-06-15T04:44:53.504Z,1013.78
2017-06-15T04:45:53.443Z,1013.74
2017-06-15T04:46:53.379Z,1013.76
2017-06-15T04:47:53.318Z,1013.75
2017-06-15T04:48:53.255Z,1013.74
2017-06-15T04:49:53.192Z,1013.77
2017-06-15T04:50:53.131Z,1013.78
2017-06-15T04:51:53.068Z,1013.8
2017-06-15T04:52:53.005Z,1013.8
2017-06-15T04:53:52.942Z,1013.81
2017-06-15T04:54:52.880Z,1013.82
2017-06-15T04:55:52.817Z,1013.82
2017-06-15T04:56:52.756Z,1013.8
2017-06-15T04:57:52.693Z,1013.82
2017-06-15T04:58:52.630Z,1013.83
2017-06-15T04:59:52.568Z,1013.81
2017-06-15T05:00:52.505Z,1013.81
2017-06-15T05:01:52.443Z,1013.8
2017-06-15T05:02:52.383Z,1013.82
2017-06-15T05:03:52.318Z,1013.78
2017-06-15T05:04:52.256Z,1013.8
2017-06-15T05:05:52.194Z,1013.75
2017-06-15T05:06:52.130Z,1013.76
2017-06-15T05:07:52.067Z,1013.74
2017-06-15T05:08:52.006Z,1013.79
2017-06-15T05:09:51.943Z,1013.79
2017-06-15T05:10:51.881Z,1013.8
2017-06-15T05:11:51.818Z,1013.8
2017-06-15T05:12:51.756Z,1013.78
2017-06-15T05:13:51.695Z,1013.77
2017-06-15T05:14:51.631Z,1013.75
2017-06-15T05:15:51.569Z,1013.73
2017-06-15T05:16:51.507Z,1013.72
2017-06-15T05:17:51.443Z,1013.72
2017-06-15T05:18:51.381Z,1013.74
2017-06-15T05:19:51.319Z,1013.71
2017-06-15T05:20:51.257Z,1013.71
2017-06-15T05:21:51.194Z,1013.73
2017-06-15T05:22:51.132Z,1013.66
2017-06-15T05:23:51.071Z,1013.69
2017-06-15T05:24:51.008Z,1013.72
2017-06-15T05:25:50.945Z,1013.68
2017-06-15T05:26:50.881Z,1013.68
2017-06-15T05:27:50.819Z,1013.7
2017-06-15T05:28:50.756Z,1013.69
2017-06-15T05:29:50.694Z,1013.65
2017-06-15T05:30:50.633Z,1013.67
2017-06-15T05:31:50.569Z,1013.69
2017-06-15T05:32:50.507Z,1013.71
2017-06-15T05:33:50.445Z,1013.67
2017-06-15T05:34:50.383Z,1013.67
2017-06-15T05:35:50.320Z,1013.65
2017-06-15T05:36:50.258Z,1013.65
2017-06-15T05:37:50.195Z,1013.64
2017-06-15T05:38:50.132Z,1013.64
2017-06-15T05:39:50.070Z,1013.63
2017-06-15T05:40:50.007Z,1013.65
2017-06-15T05:41:49.945Z,1013.66
2017-06-15T05:42:49.884Z,1013.68
2017-06-15T05:43:49.820Z,1013.71
2017-06-15T05:44:49.758Z,1013.7
2017-06-15T05:45:49.695Z,1013.7
2017-06-15T05:46:49.633Z,1013.69
2017-06-15T05:47:49.570Z,1013.73
2017-06-15T05:48:49.507Z,1013.73
2017-06-15T05:49:49.445Z,1013.73
2017-06-15T05:50:49.383Z,1013.72
2017-06-15T05:51:49.320Z,1013.74
2017-06-15T05:52:49.258Z,1013.73
2017-06-15T05:53:49.196Z,1013.75
2017-06-15T05:54:49.133Z,1013.74
2017-06-15T05:55:49.070Z,1013.71
2017-06-15T05:56:49.008Z,1013.68
2017-06-15T05:57:48.946Z,1013.7
2017-06-15T05:58:48.884Z,1013.73
2017-06-15T05:59:48.820Z,1013.71
2017-06-15T06:00:48.758Z,1013.72
2017-06-15T06:01:48.696Z,1013.73
2017-06-15T06:02:48.634Z,1013.69
2017-06-15T06:03:48.571Z,1013.72
2017-06-15T06:04:48.508Z,1013.75
2017-06-15T06:05:48.445Z,1013.7
2017-06-15T06:06:48.384Z,1013.7
2017-06-15T06:07:48.321Z,1013.7
2017-06-15T06:08:48.259Z,1013.7
2017-06-15T06:09:48.197Z,1013.69
2017-06-15T06:10:48.134Z,1013.7
2017-06-15T06:11:48.071Z,1013.69
2017-06-15T06:12:48.008Z,1013.67
2017-06-15T06:13:47.947Z,1013.7
2017-06-15T06:14:47.884Z,1013.66
2017-06-15T06:15:47.821Z,1013.63
2017-06-15T06:16:47.759Z,1013.67
2017-06-15T06:17:47.696Z,1013.65
2017-06-15T06:18:47.634Z,1013.61
2017-06-15T06:19:47.572Z,1013.63
2017-06-15T06:20:47.517Z,1013.63
2017-06-15T06:21:47.447Z,1013.6
2017-06-15T06:22:47.386Z,1013.61
2017-06-15T06:23:47.323Z,1013.59
2017-06-15T06:24:47.260Z,1013.54
2017-06-15T06:25:47.199Z,1013.57
2017-06-15T06:26:47.136Z,1013.53
2017-06-15T06:27:47.073Z,1013.53
2017-06-15T06:28:47.010Z,1013.52
2017-06-15T06:29:46.948Z,1013.55
2017-06-15T06:30:46.887Z,1013.53
2017-06-15T06:31:46.823Z,1013.54
2017-06-15T06:32:46.761Z,1013.54
2017-06-15T06:33:46.699Z,1013.5
2017-06-15T06:34:46.635Z,1013.57
2017-06-15T06:35:46.573Z,1013.57
2017-06-15T06:36:46.512Z,1013.54
2017-06-15T06:37:46.449Z,1013.54
2017-06-15T06:38:46.386Z,1013.51
2017-06-15T06:39:46.324Z,1013.52
2017-06-15T06:40:46.262Z,1013.52
2017-06-15T06:41:46.199Z,1013.57
2017-06-15T06:42:46.137Z,1013.55
2017-06-15T06:43:46.074Z,1013.55
2017-06-15T06:44:46.012Z,1013.53
2017-06-15T06:45:45.949Z,1013.53
2017-06-15T06:46:45.887Z,1013.54
2017-06-15T06:47:45.833Z,1013.53
2017-06-15T06:48:45.763Z,1013.51
2017-06-15T06:49:45.699Z,1013.48
2017-06-15T06:50:45.637Z,1013.51
2017-06-15T06:51:45.575Z,1013.51
2017-06-15T06:52:45.511Z,1013.48
2017-06-15T06:53:45.452Z,1013.48
2017-06-15T06:54:45.387Z,1013.47
2017-06-15T06:55:45.325Z,1013.5
2017-06-15T06:56:45.262Z,1013.51
2017-06-15T06:57:45.200Z,1013.46
2017-06-15T06:58:45.141Z,1013.49
2017-06-15T06:59:45.075Z,1013.49
2017-06-15T07:00:45.014Z,1013.55
2017-06-15T07:01:44.953Z,1013.52
2017-06-15T07:02:44.889Z,1013.55
2017-06-15T07:03:44.827Z,1013.53
2017-06-15T07:04:44.764Z,1013.53
2017-06-15T07:05:44.701Z,1013.58
2017-06-15T07:06:44.639Z,1013.59
2017-06-15T07:07:44.575Z,1013.56
2017-06-15T07:08:44.514Z,1013.56
2017-06-15T07:09:44.451Z,1013.6
2017-06-15T07:10:44.388Z,1013.61
2017-06-15T07:11:44.326Z,1013.54
2017-06-15T07:12:44.264Z,1013.54
2017-06-15T07:13:44.204Z,1013.56
2017-06-15T07:14:44.139Z,1013.52
2017-06-15T07:15:44.077Z,1013.53
2017-06-15T07:16:44.015Z,1013.52
2017-06-15T07:17:43.952Z,1013.53
2017-06-15T07:18:43.890Z,1013.46
2017-06-15T07:19:43.832Z,1013.47
2017-06-15T07:20:43.765Z,1013.47
2017-06-15T07:21:43.704Z,1013.51
2017-06-15T07:22:43.643Z,1013.47
2017-06-15T07:23:43.583Z,1013.52
2017-06-15T07:24:43.539Z,1013.5
2017-06-15T07:25:43.453Z,1013.49
2017-06-15T07:26:43.392Z,1013.49
2017-06-15T07:27:43.329Z,1013.51
2017-06-15T07:28:43.267Z,1013.47
2017-06-15T07:29:43.205Z,1013.5
2017-06-15T07:30:43.142Z,1013.5
2017-06-15T07:31:43.080Z,1013.47
2017-06-15T07:32:43.024Z,1013.44
2017-06-15T07:33:42.957Z,1013.49
2017-06-15T07:34:42.893Z,1013.47
2017-06-15T07:35:42.831Z,1013.47
2017-06-15T07:36:42.770Z,1013.47
2017-06-15T07:37:42.714Z,1013.46
2017-06-15T07:38:42.645Z,1013.48
2017-06-15T07:39:42.583Z,1013.47
2017-06-15T07:40:42.520Z,1013.52
2017-06-15T07:41:42.458Z,1013.45
2017-06-15T07:42:42.396Z,1013.47
2017-06-15T07:43:42.335Z,1013.49
2017-06-15T07:44:42.272Z,1013.54
2017-06-15T07:45:42.210Z,1013.51
2017-06-15T07:46:42.150Z,1013.48
2017-06-15T07:47:42.088Z,1013.48
2017-06-15T07:48:42.023Z,1013.5
2017-06-15T07:49:41.961Z,1013.5
2017-06-15T07:50:41.903Z,1013.5
2017-06-15T07:51:41.837Z,1013.53
2017-06-15T07:52:41.776Z,1013.51
2017-06-15T07:53:41.715Z,1013.49
2017-06-15T07:54:41.652Z,1013.5
2017-06-15T07:55:41.590Z,1013.5
2017-06-15T07:56:41.529Z,1013.58
2017-06-15T07:57:41.471Z,1013.56
2017-06-15T07:58:41.492Z,1013.53
2017-06-15T07:59:41.341Z,1013.57
2017-06-15T08:00:41.281Z,1013.57
2017-06-15T08:01:41.219Z,1013.54
2017-06-15T08:02:41.160Z,1013.5
2017-06-15T08:03:41.094Z,1013.48
2017-06-15T08:04:41.033Z,1013.4
2017-06-15T08:05:40.970Z,1013.44
2017-06-15T08:06:40.908Z,1013.45
2017-06-15T08:07:40.846Z,1013.41
2017-06-15T08:08:40.784Z,1013.46
2017-06-15T08:09:40.722Z,1013.49
2017-06-15T08:10:40.660Z,1013.51
2017-06-15T08:11:40.599Z,1013.5
2017-06-15T08:12:40.536Z,1013.46
2017-06-15T08:13:40.474Z,1013.47
2017-06-15T08:14:40.412Z,1013.51
2017-06-15T08:15:40.378Z,1013.45
2017-06-15T08:16:40.287Z,1013.48
2017-06-15T08:17:40.226Z,1013.48
2017-06-15T08:18:40.165Z,1013.44
2017-06-15T08:19:40.105Z,1013.46
2017-06-15T08:20:40.041Z,1013.43
2017-06-15T08:21:39.979Z,1013.4
2017-06-15T08:22:39.917Z,1013.38
2017-06-15T08:23:39.857Z,1013.4
2017-06-15T08:24:39.795Z,1013.38
2017-06-15T08:25:39.732Z,1013.39
2017-06-15T08:26:39.669Z,1013.38
2017-06-15T08:27:39.607Z,1013.34
2017-06-15T08:28:39.546Z,1013.36
2017-06-15T08:29:39.485Z,1013.35
2017-06-15T08:30:39.425Z,1013.42
2017-06-15T08:31:39.360Z,1013.38
2017-06-15T08:32:39.507Z,1013.47
2017-06-15T08:33:39.238Z,1013.44
2017-06-15T08:34:39.175Z,1013.4
2017-06-15T08:35:39.113Z,1013.42
2017-06-15T08:36:39.052Z,1013.42
2017-06-15T08:37:38.990Z,1013.41
2017-06-15T08:38:38.928Z,1013.4
2017-06-15T08:39:38.867Z,1013.35
2017-06-15T08:40:38.806Z,1013.35
2017-06-15T08:41:38.774Z,1013.37
2017-06-15T08:42:38.682Z,1013.35
2017-06-15T08:43:38.620Z,1013.39
2017-06-15T08:44:38.559Z,1013.39
2017-06-15T08:45:38.498Z,1013.36
2017-06-15T08:46:38.436Z,1013.4
2017-06-15T08:47:38.374Z,1013.37
2017-06-15T08:48:38.313Z,1013.34
2017-06-15T08:49:38.251Z,1013.36
2017-06-15T08:50:38.189Z,1013.29
2017-06-15T08:51:38.128Z,1013.33
2017-06-15T08:52:38.098Z,1013.32
2017-06-15T08:53:38.005Z,1013.32
2017-06-15T08:54:37.943Z,1013.28
2017-06-15T08:55:37.882Z,1013.25
2017-06-15T08:56:37.820Z,1013.25
2017-06-15T08:57:37.761Z,1013.24
2017-06-15T08:58:37.697Z,1013.23
2017-06-15T08:59:37.636Z,1013.24
2017-06-15T09:00:37.573Z,1013.24
2017-06-15T09:01:37.511Z,1013.23
2017-06-15T09:02:37.752Z,1013.21
2017-06-15T09:03:37.394Z,1013.24
2017-06-15T09:04:37.327Z,1013.23
2017-06-15T09:05:37.266Z,1013.19
2017-06-15T09:06:37.207Z,1013.23
2017-06-15T09:07:37.143Z,1013.18
2017-06-15T09:08:37.085Z,1013.16
2017-06-15T09:09:37.020Z,1013.13
2017-06-15T09:10:36.959Z,1013.14
2017-06-15T09:11:36.897Z,1013.12
2017-06-15T09:12:36.836Z,1013.19
2017-06-15T09:13:36.774Z,1013.16
2017-06-15T09:14:36.714Z,1013.15
2017-06-15T09:15:36.689Z,1013.14
2017-06-15T09:16:36.621Z,1013.1
2017-06-15T09:17:36.592Z,1013.14
2017-06-15T09:18:36.468Z,1013.12
2017-06-15T09:19:36.407Z,1013.13
2017-06-15T09:20:36.345Z,1013.1
2017-06-15T09:21:36.283Z,1013.06
2017-06-15T09:22:36.222Z,1013.05
2017-06-15T09:23:36.195Z,1013.03
2017-06-15T09:24:36.115Z,1013
2017-06-15T09:25:36.051Z,1013
2017-06-15T09:26:35.992Z,1013.04
2017-06-15T09:27:35.935Z,1013.05
2017-06-15T09:28:35.912Z,1013.02
2017-06-15T09:29:35.837Z,1013.08
2017-06-15T09:30:35.747Z,1013.03
2017-06-15T09:31:35.671Z,1013.03
2017-06-15T09:32:35.612Z,1013.03
2017-06-15T09:33:35.548Z,1013.02
2017-06-15T09:34:35.485Z,1013.01
2017-06-15T09:35:35.576Z,1013.02
2017-06-15T09:36:35.368Z,1013
2017-06-15T09:37:35.301Z,1012.94
2017-06-15T09:38:35.239Z,1012.98
2017-06-15T09:39:35.179Z,1012.94
2017-06-15T09:40:35.117Z,1012.96
2017-06-15T09:41:35.056Z,1012.91
2017-06-15T09:42:35.001Z,1012.87
2017-06-15T09:43:34.933Z,1012.86
2017-06-15T09:44:34.871Z,1012.88
2017-06-15T09:45:34.813Z,1012.88
2017-06-15T09:46:34.749Z,1012.87
2017-06-15T09:47:34.690Z,1012.84
2017-06-15T09:48:34.625Z,1012.84
2017-06-15T09:49:34.563Z,1012.9
2017-06-15T09:50:34.504Z,1012.85
2017-06-15T09:51:34.439Z,1012.79
2017-06-15T09:52:34.378Z,1012.83
2017-06-15T09:53:34.318Z,1012.82
2017-06-15T09:54:34.257Z,1012.77
2017-06-15T09:55:34.193Z,1012.76
2017-06-15T09:56:34.133Z,1012.73
2017-06-15T09:57:34.078Z,1012.7
2017-06-15T09:58:34.009Z,1012.68
2017-06-15T09:59:33.947Z,1012.7
2017-06-15T10:00:33.886Z,1012.69
2017-06-15T10:01:33.824Z,1012.65
2017-06-15T10:02:33.769Z,1012.65
2017-06-15T10:03:33.701Z,1012.65
2017-06-15T10:04:33.639Z,1012.65
2017-06-15T10:05:33.592Z,1012.64
2017-06-15T10:06:33.517Z,1012.65
2017-06-15T10:07:33.454Z,1012.65
2017-06-15T10:08:33.397Z,1012.64
2017-06-15T10:09:33.332Z,1012.67
2017-06-15T10:10:33.268Z,1012.62
2017-06-15T10:11:33.207Z,1012.63
2017-06-15T10:12:33.146Z,1012.61
2017-06-15T10:13:33.083Z,1012.59
2017-06-15T10:14:33.022Z,1012.6
2017-06-15T10:15:32.961Z,1012.62
2017-06-15T10:16:32.899Z,1012.61
2017-06-15T10:17:32.840Z,1012.55
2017-06-15T10:18:32.775Z,1012.59
2017-06-15T10:19:32.715Z,1012.56
2017-06-15T10:20:32.652Z,1012.53
2017-06-15T10:21:32.590Z,1012.56
2017-06-15T10:22:32.532Z,1012.54
2017-06-15T10:23:32.467Z,1012.55
2017-06-15T10:24:32.406Z,1012.6
2017-06-15T10:25:32.344Z,1012.57
2017-06-15T10:26:32.282Z,1012.56
2017-06-15T10:27:32.224Z,1012.55
2017-06-15T10:28:32.160Z,1012.5
2017-06-15T10:29:32.097Z,1012.54
2017-06-15T10:30:32.036Z,1012.49
2017-06-15T10:31:31.975Z,1012.52
2017-06-15T10:32:31.913Z,1012.52
2017-06-15T10:33:31.851Z,1012.5
2017-06-15T10:34:31.797Z,1012.48
2017-06-15T10:35:31.727Z,1012.46
2017-06-15T10:36:31.665Z,1012.46
2017-06-15T10:37:31.605Z,1012.44
2017-06-15T10:38:31.543Z,1012.44
2017-06-15T10:39:31.480Z,1012.44
2017-06-15T10:40:31.419Z,1012.41
2017-06-15T10:41:31.362Z,1012.4
2017-06-15T10:42:31.297Z,1012.4
2017-06-15T10:43:31.234Z,1012.35
2017-06-15T10:44:31.180Z,1012.37
2017-06-15T10:45:31.138Z,1012.36
2017-06-15T10:46:31.050Z,1012.39
2017-06-15T10:47:30.987Z,1012.38
2017-06-15T10:48:30.928Z,1012.37
2017-06-15T10:49:30.866Z,1012.39
2017-06-15T10:50:30.803Z,1012.42
2017-06-15T10:51:30.741Z,1012.38
2017-06-15T10:52:30.681Z,1012.3
2017-06-15T10:53:30.685Z,1012.27
2017-06-15T10:54:30.565Z,1012.2
2017-06-15T10:55:30.496Z,1012.22
2017-06-15T10:56:30.474Z,1012.21
2017-06-15T10:57:30.381Z,1012.2
2017-06-15T10:58:30.309Z,1012.21
2017-06-15T10:59:30.260Z,1012.25
2017-06-15T11:00:30.255Z,1012.24
2017-06-15T11:01:30.139Z,1012.21
2017-06-15T11:02:30.064Z,1012.24
2017-06-15T11:03:30.001Z,1012.2
2017-06-15T11:04:29.941Z,1012.17
2017-06-15T11:05:29.878Z,1012.16
2017-06-15T11:06:29.817Z,1012.13
2017-06-15T11:07:29.757Z,1012.12
2017-06-15T11:08:29.695Z,1012.15
2017-06-15T11:09:29.632Z,1012.17
2017-06-15T11:10:29.572Z,1012.15
2017-06-15T11:11:29.510Z,1012.13
2017-06-15T11:12:29.446Z,1012.11
2017-06-15T11:13:29.387Z,1012.06
2017-06-15T11:14:29.336Z,1012.05
2017-06-15T11:15:29.261Z,1012.02
2017-06-15T11:16:29.201Z,1012.02
2017-06-15T11:17:29.141Z,1012.02
2017-06-15T11:18:29.077Z,1012.05
2017-06-15T11:19:29.014Z,1012.04
2017-06-15T11:20:28.953Z,1012.02
2017-06-15T11:21:28.891Z,1012.05
2017-06-15T11:22:28.837Z,1011.98
2017-06-15T11:23:28.767Z,1011.92
2017-06-15T11:24:28.707Z,1011.9
2017-06-15T11:25:28.644Z,1011.94
2017-06-15T11:26:28.582Z,1011.86
2017-06-15T11:27:28.521Z,1011.88
2017-06-15T11:28:28.460Z,1011.92
2017-06-15T11:29:28.398Z,1011.92
2017-06-15T11:30:28.335Z,1011.94
2017-06-15T11:31:28.273Z,1011.92
2017-06-15T11:32:28.213Z,1011.94
2017-06-15T11:33:28.151Z,1011.88
2017-06-15T11:34:28.089Z,1011.9
2017-06-15T11:35:28.028Z,1011.89
2017-06-15T11:36:27.971Z,1011.91
2017-06-15T11:37:27.904Z,1011.86
2017-06-15T11:38:27.841Z,1011.85
2017-06-15T11:39:27.779Z,1011.82
2017-06-15T11:40:27.718Z,1011.84
2017-06-15T11:41:27.655Z,1011.82
2017-06-15T11:42:27.594Z,1011.82
2017-06-15T11:43:27.536Z,1011.82
2017-06-15T11:44:27.473Z,1011.77
2017-06-15T11:45:27.408Z,1011.84
2017-06-15T11:46:27.348Z,1011.87
2017-06-15T11:47:27.286Z,1011.87
2017-06-15T11:48:27.222Z,1011.84
2017-06-15T11:49:27.164Z,1011.84
2017-06-15T11:50:27.101Z,1011.82
2017-06-15T11:51:27.037Z,1011.8
2017-06-15T11:52:26.975Z,1011.77
2017-06-15T11:53:26.914Z,1011.78
2017-06-15T11:54:26.853Z,1011.78
2017-06-15T11:55:26.792Z,1011.79
2017-06-15T11:56:26.737Z,1011.82
2017-06-15T11:57:26.668Z,1011.79
2017-06-15T11:58:26.605Z,1011.74
2017-06-15T11:59:26.542Z,1011.72
2017-06-15T12:00:26.481Z,1011.72
2017-06-15T12:01:26.431Z,1011.72
2017-06-15T12:02:26.357Z,1011.73
2017-06-15T12:03:26.314Z,1011.73
2017-06-15T12:04:26.238Z,1011.69
2017-06-15T12:05:26.174Z,1011.64
2017-06-15T12:06:26.114Z,1011.62
2017-06-15T12:07:26.049Z,1011.66
2017-06-15T12:08:25.986Z,1011.61